sensor_id;sensor_type;location;lat;lon;timestamp;temperature;humidity
75430;DHT22;64127;51.488;5.462;2024-01-25T00:00:03;9.90;99.90
75430;DHT22;64127;51.488;5.462;2024-01-25T00:02:35;9.90;99.90
75430;DHT22;64127;51.488;5.462;2024-01-25T00:05:07;9.90;99.90
75430;DHT22;64127;51.488;5.462;2024-01-25T00:07:50;9.90;99.90
75430;DHT22;64127;51.488;5.462;2024-01-25T00:10:22;9.90;99.90
75430;DHT22;64127;51.488;5.462;2024-01-25T00:12:54;9.80;99.90
75430;DHT22;64127;51.488;5.462;2024-01-25T00:15:26;9.80;99.90
75430;DHT22;64127;51.488;5.462;2024-01-25T00:17:58;9.80;99.90
75430;DHT22;64127;51.488;5.462;2024-01-25T00:20:30;9.70;99.90
75430;DHT22;64127;51.488;5.462;2024-01-25T00:23:03;9.70;99.90
75430;DHT22;64127;51.488;5.462;2024-01-25T00:25:35;9.70;99.90
75430;DHT22;64127;51.488;5.462;2024-01-25T00:28:07;9.70;99.90
75430;DHT22;64127;51.488;5.462;2024-01-25T00:30:40;9.60;99.90
75430;DHT22;64127;51.488;5.462;2024-01-25T00:33:12;9.60;99.90
75430;DHT22;64127;51.488;5.462;2024-01-25T00:35:44;9.50;99.90
75430;DHT22;64127;51.488;5.462;2024-01-25T00:38:16;9.50;99.90
75430;DHT22;64127;51.488;5.462;2024-01-25T00:40:49;9.50;99.90
75430;DHT22;64127;51.488;5.462;2024-01-25T00:43:21;9.40;99.90
75430;DHT22;64127;51.488;5.462;2024-01-25T00:45:54;9.40;99.90
75430;DHT22;64127;51.488;5.462;2024-01-25T00:48:26;9.40;99.90
75430;DHT22;64127;51.488;5.462;2024-01-25T00:50:59;9.40;99.90
75430;DHT22;64127;51.488;5.462;2024-01-25T00:53:31;9.40;99.90
75430;DHT22;64127;51.488;5.462;2024-01-25T00:56:04;9.40;99.90
75430;DHT22;64127;51.488;5.462;2024-01-25T00:58:37;9.30;99.90
75430;DHT22;64127;51.488;5.462;2024-01-25T01:01:10;9.30;99.90
75430;DHT22;64127;51.488;5.462;2024-01-25T01:03:42;9.30;99.90
75430;DHT22;64127;51.488;5.462;2024-01-25T01:06:15;9.30;99.90
75430;DHT22;64127;51.488;5.462;2024-01-25T01:08:48;9.20;99.90
75430;DHT22;64127;51.488;5.462;2024-01-25T01:11:20;9.20;99.90
75430;DHT22;64127;51.488;5.462;2024-01-25T01:13:52;9.20;99.90
75430;DHT22;64127;51.488;5.462;2024-01-25T01:16:24;9.20;99.90
75430;DHT22;64127;51.488;5.462;2024-01-25T01:18:56;9.20;99.90
75430;DHT22;64127;51.488;5.462;2024-01-25T01:21:28;9.10;99.90
75430;DHT22;64127;51.488;5.462;2024-01-25T01:24:00;9.10;99.90
75430;DHT22;64127;51.488;5.462;2024-01-25T01:26:33;9.10;99.90
75430;DHT22;64127;51.488;5.462;2024-01-25T01:29:06;9.10;99.90
75430;DHT22;64127;51.488;5.462;2024-01-25T01:31:39;9.00;99.90
75430;DHT22;64127;51.488;5.462;2024-01-25T01:34:11;9.00;99.90
75430;DHT22;64127;51.488;5.462;2024-01-25T01:36:46;9.00;99.90
75430;DHT22;64127;51.488;5.462;2024-01-25T01:39:19;8.90;99.90
75430;DHT22;64127;51.488;5.462;2024-01-25T01:41:51;8.90;99.90
75430;DHT22;64127;51.488;5.462;2024-01-25T01:44:23;8.90;99.90
75430;DHT22;64127;51.488;5.462;2024-01-25T01:46:55;8.90;99.90
75430;DHT22;64127;51.488;5.462;2024-01-25T01:49:27;8.90;99.90
75430;DHT22;64127;51.488;5.462;2024-01-25T01:51:59;8.90;99.90
75430;DHT22;64127;51.488;5.462;2024-01-25T01:54:32;8.80;99.90
75430;DHT22;64127;51.488;5.462;2024-01-25T01:57:04;8.80;99.90
75430;DHT22;64127;51.488;5.462;2024-01-25T01:59:38;8.80;99.90
75430;DHT22;64127;51.488;5.462;2024-01-25T02:02:10;8.80;99.90
75430;DHT22;64127;51.488;5.462;2024-01-25T02:04:43;8.80;99.90
75430;DHT22;64127;51.488;5.462;2024-01-25T02:07:16;8.80;99.90
75430;DHT22;64127;51.488;5.462;2024-01-25T02:09:48;8.80;99.90
75430;DHT22;64127;51.488;5.462;2024-01-25T02:12:20;8.70;99.90
75430;DHT22;64127;51.488;5.462;2024-01-25T02:14:52;8.70;99.90
75430;DHT22;64127;51.488;5.462;2024-01-25T02:17:24;8.70;99.90
75430;DHT22;64127;51.488;5.462;2024-01-25T02:19:56;8.70;99.90
75430;DHT22;64127;51.488;5.462;2024-01-25T02:22:28;8.70;99.90
75430;DHT22;64127;51.488;5.462;2024-01-25T02:25:01;8.70;99.90
75430;DHT22;64127;51.488;5.462;2024-01-25T02:27:33;8.70;99.90
75430;DHT22;64127;51.488;5.462;2024-01-25T02:30:10;8.60;99.90
75430;DHT22;64127;51.488;5.462;2024-01-25T02:32:43;8.60;99.90
75430;DHT22;64127;51.488;5.462;2024-01-25T02:35:16;8.60;99.90
75430;DHT22;64127;51.488;5.462;2024-01-25T02:37:48;8.50;99.90
75430;DHT22;64127;51.488;5.462;2024-01-25T02:40:22;8.50;99.90
75430;DHT22;64127;51.488;5.462;2024-01-25T02:42:55;8.50;99.90
75430;DHT22;64127;51.488;5.462;2024-01-25T02:45:28;8.50;99.90
75430;DHT22;64127;51.488;5.462;2024-01-25T02:48:00;8.50;99.90
75430;DHT22;64127;51.488;5.462;2024-01-25T02:50:34;8.50;99.90
75430;DHT22;64127;51.488;5.462;2024-01-25T02:53:06;8.40;99.90
75430;DHT22;64127;51.488;5.462;2024-01-25T02:55:38;8.40;99.90
75430;DHT22;64127;51.488;5.462;2024-01-25T02:58:10;8.40;99.90
75430;DHT22;64127;51.488;5.462;2024-01-25T03:00:42;8.40;99.90
75430;DHT22;64127;51.488;5.462;2024-01-25T03:03:14;8.30;99.90
75430;DHT22;64127;51.488;5.462;2024-01-25T03:05:46;8.30;99.90
75430;DHT22;64127;51.488;5.462;2024-01-25T03:08:18;8.30;99.90
75430;DHT22;64127;51.488;5.462;2024-01-25T03:10:50;8.20;99.90
75430;DHT22;64127;51.488;5.462;2024-01-25T03:13:22;8.20;99.90
75430;DHT22;64127;51.488;5.462;2024-01-25T03:15:55;8.10;99.90
75430;DHT22;64127;51.488;5.462;2024-01-25T03:18:27;8.10;99.90
75430;DHT22;64127;51.488;5.462;2024-01-25T03:20:59;8.10;99.90
75430;DHT22;64127;51.488;5.462;2024-01-25T03:23:31;8.10;99.90
75430;DHT22;64127;51.488;5.462;2024-01-25T03:26:03;8.10;99.90
75430;DHT22;64127;51.488;5.462;2024-01-25T03:28:35;8.10;99.90
75430;DHT22;64127;51.488;5.462;2024-01-25T03:31:07;8.00;99.90
75430;DHT22;64127;51.488;5.462;2024-01-25T03:33:39;8.00;99.90
75430;DHT22;64127;51.488;5.462;2024-01-25T03:36:15;8.00;99.90
75430;DHT22;64127;51.488;5.462;2024-01-25T03:38:47;8.00;99.90
75430;DHT22;64127;51.488;5.462;2024-01-25T03:41:20;8.00;99.90
75430;DHT22;64127;51.488;5.462;2024-01-25T03:43:52;8.00;99.90
75430;DHT22;64127;51.488;5.462;2024-01-25T03:46:24;7.90;99.90
75430;DHT22;64127;51.488;5.462;2024-01-25T03:48:56;7.90;99.90
75430;DHT22;64127;51.488;5.462;2024-01-25T03:51:29;7.90;99.90
75430;DHT22;64127;51.488;5.462;2024-01-25T03:54:01;7.90;99.90
75430;DHT22;64127;51.488;5.462;2024-01-25T03:56:33;7.90;99.90
75430;DHT22;64127;51.488;5.462;2024-01-25T03:59:05;7.90;99.90
75430;DHT22;64127;51.488;5.462;2024-01-25T04:01:43;7.90;99.90
75430;DHT22;64127;51.488;5.462;2024-01-25T04:04:16;7.80;99.90
75430;DHT22;64127;51.488;5.462;2024-01-25T04:06:48;7.80;99.90
75430;DHT22;64127;51.488;5.462;2024-01-25T04:09:21;7.80;99.90
75430;DHT22;64127;51.488;5.462;2024-01-25T04:11:53;7.80;99.90
75430;DHT22;64127;51.488;5.462;2024-01-25T04:14:25;7.80;99.90
75430;DHT22;64127;51.488;5.462;2024-01-25T04:16:56;7.70;99.90
75430;DHT22;64127;51.488;5.462;2024-01-25T04:19:29;7.70;99.90
75430;DHT22;64127;51.488;5.462;2024-01-25T04:22:01;7.70;99.90
75430;DHT22;64127;51.488;5.462;2024-01-25T04:24:33;7.70;99.90
75430;DHT22;64127;51.488;5.462;2024-01-25T04:27:05;7.70;99.90
75430;DHT22;64127;51.488;5.462;2024-01-25T04:29:40;7.60;99.90
75430;DHT22;64127;51.488;5.462;2024-01-25T04:32:15;7.60;99.90
75430;DHT22;64127;51.488;5.462;2024-01-25T04:34:47;7.60;99.90
75430;DHT22;64127;51.488;5.462;2024-01-25T04:37:20;7.60;99.90
75430;DHT22;64127;51.488;5.462;2024-01-25T04:39:52;7.50;99.90
75430;DHT22;64127;51.488;5.462;2024-01-25T04:42:24;7.50;99.90
75430;DHT22;64127;51.488;5.462;2024-01-25T04:44:56;7.50;99.90
75430;DHT22;64127;51.488;5.462;2024-01-25T04:47:29;7.50;99.90
75430;DHT22;64127;51.488;5.462;2024-01-25T04:50:01;7.40;99.90
75430;DHT22;64127;51.488;5.462;2024-01-25T04:52:33;7.50;99.90
75430;DHT22;64127;51.488;5.462;2024-01-25T04:55:05;7.50;99.90
75430;DHT22;64127;51.488;5.462;2024-01-25T04:57:38;7.40;99.90
75430;DHT22;64127;51.488;5.462;2024-01-25T05:00:10;7.40;99.90
75430;DHT22;64127;51.488;5.462;2024-01-25T05:02:43;7.40;99.90
75430;DHT22;64127;51.488;5.462;2024-01-25T05:05:15;7.40;99.90
75430;DHT22;64127;51.488;5.462;2024-01-25T05:07:47;7.40;99.90
75430;DHT22;64127;51.488;5.462;2024-01-25T05:10:20;7.30;99.90
75430;DHT22;64127;51.488;5.462;2024-01-25T05:12:54;7.30;99.90
75430;DHT22;64127;51.488;5.462;2024-01-25T05:15:26;7.30;99.90
75430;DHT22;64127;51.488;5.462;2024-01-25T05:17:58;7.30;99.90
75430;DHT22;64127;51.488;5.462;2024-01-25T05:20:31;7.30;99.90
75430;DHT22;64127;51.488;5.462;2024-01-25T05:23:08;7.20;99.90
75430;DHT22;64127;51.488;5.462;2024-01-25T05:25:40;7.20;99.90
75430;DHT22;64127;51.488;5.462;2024-01-25T05:28:12;7.20;99.90
75430;DHT22;64127;51.488;5.462;2024-01-25T05:30:44;7.20;99.90
75430;DHT22;64127;51.488;5.462;2024-01-25T05:33:17;7.10;99.90
75430;DHT22;64127;51.488;5.462;2024-01-25T05:35:49;7.10;99.90
75430;DHT22;64127;51.488;5.462;2024-01-25T05:38:21;7.00;99.90
75430;DHT22;64127;51.488;5.462;2024-01-25T05:40:53;7.00;99.90
75430;DHT22;64127;51.488;5.462;2024-01-25T05:43:25;7.00;99.90
75430;DHT22;64127;51.488;5.462;2024-01-25T05:45:58;7.00;99.90
75430;DHT22;64127;51.488;5.462;2024-01-25T05:48:31;7.00;99.90
75430;DHT22;64127;51.488;5.462;2024-01-25T05:51:04;7.00;99.90
75430;DHT22;64127;51.488;5.462;2024-01-25T05:53:36;6.90;99.90
75430;DHT22;64127;51.488;5.462;2024-01-25T05:56:08;6.90;99.90
75430;DHT22;64127;51.488;5.462;2024-01-25T05:58:40;6.90;99.90
75430;DHT22;64127;51.488;5.462;2024-01-25T06:01:12;6.90;99.90
75430;DHT22;64127;51.488;5.462;2024-01-25T06:03:44;6.90;99.90
75430;DHT22;64127;51.488;5.462;2024-01-25T06:06:16;6.90;99.90
75430;DHT22;64127;51.488;5.462;2024-01-25T06:08:49;6.90;99.90
75430;DHT22;64127;51.488;5.462;2024-01-25T06:11:33;6.90;99.90
75430;DHT22;64127;51.488;5.462;2024-01-25T06:14:07;6.80;99.90
75430;DHT22;64127;51.488;5.462;2024-01-25T06:16:40;6.80;99.90
75430;DHT22;64127;51.488;5.462;2024-01-25T06:19:12;6.80;99.90
75430;DHT22;64127;51.488;5.462;2024-01-25T06:21:44;6.80;99.90
75430;DHT22;64127;51.488;5.462;2024-01-25T06:24:16;6.80;99.90
75430;DHT22;64127;51.488;5.462;2024-01-25T06:26:48;6.80;99.90
75430;DHT22;64127;51.488;5.462;2024-01-25T06:29:20;6.70;99.90
75430;DHT22;64127;51.488;5.462;2024-01-25T06:31:52;6.70;99.90
75430;DHT22;64127;51.488;5.462;2024-01-25T06:34:24;6.70;99.90
75430;DHT22;64127;51.488;5.462;2024-01-25T06:36:56;6.70;99.90
75430;DHT22;64127;51.488;5.462;2024-01-25T06:39:29;6.70;99.90
75430;DHT22;64127;51.488;5.462;2024-01-25T06:42:01;6.70;99.90
75430;DHT22;64127;51.488;5.462;2024-01-25T06:44:33;6.70;99.90
75430;DHT22;64127;51.488;5.462;2024-01-25T06:47:05;6.60;99.90
75430;DHT22;64127;51.488;5.462;2024-01-25T06:49:37;6.60;99.90
75430;DHT22;64127;51.488;5.462;2024-01-25T06:52:09;6.60;99.90
75430;DHT22;64127;51.488;5.462;2024-01-25T06:54:41;6.60;99.90
75430;DHT22;64127;51.488;5.462;2024-01-25T06:57:13;6.60;99.90
75430;DHT22;64127;51.488;5.462;2024-01-25T06:59:46;6.60;99.90
75430;DHT22;64127;51.488;5.462;2024-01-25T07:02:18;6.60;99.90
75430;DHT22;64127;51.488;5.462;2024-01-25T07:04:51;6.60;99.90
75430;DHT22;64127;51.488;5.462;2024-01-25T07:07:25;6.50;99.90
75430;DHT22;64127;51.488;5.462;2024-01-25T07:09:57;6.50;99.90
75430;DHT22;64127;51.488;5.462;2024-01-25T07:12:29;6.60;99.90
75430;DHT22;64127;51.488;5.462;2024-01-25T07:15:02;6.50;99.90
75430;DHT22;64127;51.488;5.462;2024-01-25T07:17:34;6.50;99.90
75430;DHT22;64127;51.488;5.462;2024-01-25T07:20:07;6.50;99.90
75430;DHT22;64127;51.488;5.462;2024-01-25T07:22:41;6.50;99.90
75430;DHT22;64127;51.488;5.462;2024-01-25T07:25:13;6.50;99.90
75430;DHT22;64127;51.488;5.462;2024-01-25T07:27:45;6.50;99.90
75430;DHT22;64127;51.488;5.462;2024-01-25T07:30:18;6.50;99.90
75430;DHT22;64127;51.488;5.462;2024-01-25T07:32:50;6.50;99.90
75430;DHT22;64127;51.488;5.462;2024-01-25T07:35:23;6.50;99.90
75430;DHT22;64127;51.488;5.462;2024-01-25T07:37:55;6.40;99.90
75430;DHT22;64127;51.488;5.462;2024-01-25T07:40:27;6.40;99.90
75430;DHT22;64127;51.488;5.462;2024-01-25T07:43:00;6.40;99.90
75430;DHT22;64127;51.488;5.462;2024-01-25T07:45:32;6.50;99.90
75430;DHT22;64127;51.488;5.462;2024-01-25T07:48:05;6.50;99.90
75430;DHT22;64127;51.488;5.462;2024-01-25T07:50:45;6.60;99.90
75430;DHT22;64127;51.488;5.462;2024-01-25T07:53:18;6.60;99.90
75430;DHT22;64127;51.488;5.462;2024-01-25T07:55:50;6.70;99.90
75430;DHT22;64127;51.488;5.462;2024-01-25T07:58:22;6.70;99.90
75430;DHT22;64127;51.488;5.462;2024-01-25T08:00:55;6.70;99.90
75430;DHT22;64127;51.488;5.462;2024-01-25T08:03:27;6.70;99.90
75430;DHT22;64127;51.488;5.462;2024-01-25T08:06:00;6.80;99.90
75430;DHT22;64127;51.488;5.462;2024-01-25T08:08:34;6.80;99.90
75430;DHT22;64127;51.488;5.462;2024-01-25T08:11:06;6.80;99.90
75430;DHT22;64127;51.488;5.462;2024-01-25T08:13:42;6.80;99.90
75430;DHT22;64127;51.488;5.462;2024-01-25T08:16:14;6.90;99.90
75430;DHT22;64127;51.488;5.462;2024-01-25T08:18:51;6.90;99.90
75430;DHT22;64127;51.488;5.462;2024-01-25T08:21:23;6.90;99.90
75430;DHT22;64127;51.488;5.462;2024-01-25T08:23:56;6.90;99.90
75430;DHT22;64127;51.488;5.462;2024-01-25T08:26:28;6.90;99.90
75430;DHT22;64127;51.488;5.462;2024-01-25T08:29:00;6.90;99.90
75430;DHT22;64127;51.488;5.462;2024-01-25T08:31:33;7.00;99.90
75430;DHT22;64127;51.488;5.462;2024-01-25T08:34:05;7.00;99.90
75430;DHT22;64127;51.488;5.462;2024-01-25T08:36:38;7.00;99.90
75430;DHT22;64127;51.488;5.462;2024-01-25T08:39:10;7.10;99.90
75430;DHT22;64127;51.488;5.462;2024-01-25T08:41:42;7.10;99.90
75430;DHT22;64127;51.488;5.462;2024-01-25T08:44:15;7.20;99.90
75430;DHT22;64127;51.488;5.462;2024-01-25T08:46:48;7.30;99.90
75430;DHT22;64127;51.488;5.462;2024-01-25T08:49:20;7.30;99.90
75430;DHT22;64127;51.488;5.462;2024-01-25T08:51:52;7.30;99.90
75430;DHT22;64127;51.488;5.462;2024-01-25T08:54:25;7.30;99.90
75430;DHT22;64127;51.488;5.462;2024-01-25T08:56:57;7.30;99.90
75430;DHT22;64127;51.488;5.462;2024-01-25T08:59:29;7.30;99.90
75430;DHT22;64127;51.488;5.462;2024-01-25T09:02:04;7.30;99.90
75430;DHT22;64127;51.488;5.462;2024-01-25T09:04:38;7.30;99.90
75430;DHT22;64127;51.488;5.462;2024-01-25T09:07:12;7.30;99.90
75430;DHT22;64127;51.488;5.462;2024-01-25T09:09:44;7.40;99.90
75430;DHT22;64127;51.488;5.462;2024-01-25T09:12:16;7.40;99.90
75430;DHT22;64127;51.488;5.462;2024-01-25T09:14:49;7.50;99.90
75430;DHT22;64127;51.488;5.462;2024-01-25T09:17:21;7.50;99.90
75430;DHT22;64127;51.488;5.462;2024-01-25T09:19:55;7.50;99.90
75430;DHT22;64127;51.488;5.462;2024-01-25T09:22:31;7.60;99.90
75430;DHT22;64127;51.488;5.462;2024-01-25T09:25:04;7.70;99.90
75430;DHT22;64127;51.488;5.462;2024-01-25T09:27:40;7.80;99.90
75430;DHT22;64127;51.488;5.462;2024-01-25T09:30:12;7.90;99.90
75430;DHT22;64127;51.488;5.462;2024-01-25T09:32:45;8.10;99.90
75430;DHT22;64127;51.488;5.462;2024-01-25T09:35:19;8.20;99.90
75430;DHT22;64127;51.488;5.462;2024-01-25T09:37:51;8.40;99.90
75430;DHT22;64127;51.488;5.462;2024-01-25T09:40:24;8.60;99.90
75430;DHT22;64127;51.488;5.462;2024-01-25T09:42:57;8.70;99.90
75430;DHT22;64127;51.488;5.462;2024-01-25T09:45:30;8.80;99.90
75430;DHT22;64127;51.488;5.462;2024-01-25T09:48:03;8.90;99.90
75430;DHT22;64127;51.488;5.462;2024-01-25T09:50:37;9.00;99.90
75430;DHT22;64127;51.488;5.462;2024-01-25T09:53:17;9.10;99.90
75430;DHT22;64127;51.488;5.462;2024-01-25T09:56:05;9.30;99.90
75430;DHT22;64127;51.488;5.462;2024-01-25T09:58:42;9.30;99.90
75430;DHT22;64127;51.488;5.462;2024-01-25T10:01:17;9.30;99.90
75430;DHT22;64127;51.488;5.462;2024-01-25T10:03:50;9.40;99.90
75430;DHT22;64127;51.488;5.462;2024-01-25T10:06:22;9.40;99.90
75430;DHT22;64127;51.488;5.462;2024-01-25T10:08:55;9.30;99.90
75430;DHT22;64127;51.488;5.462;2024-01-25T10:11:27;9.20;99.90
75430;DHT22;64127;51.488;5.462;2024-01-25T10:14:07;9.20;99.90
75430;DHT22;64127;51.488;5.462;2024-01-25T10:16:40;9.20;99.90
75430;DHT22;64127;51.488;5.462;2024-01-25T10:19:12;9.30;99.90
75430;DHT22;64127;51.488;5.462;2024-01-25T10:21:45;9.30;99.90
75430;DHT22;64127;51.488;5.462;2024-01-25T10:24:18;9.30;99.90
75430;DHT22;64127;51.488;5.462;2024-01-25T10:26:50;9.30;99.90
75430;DHT22;64127;51.488;5.462;2024-01-25T10:29:25;9.20;99.90
75430;DHT22;64127;51.488;5.462;2024-01-25T10:31:58;9.20;99.90
75430;DHT22;64127;51.488;5.462;2024-01-25T10:34:30;9.20;99.90
75430;DHT22;64127;51.488;5.462;2024-01-25T10:37:05;9.20;99.90
75430;DHT22;64127;51.488;5.462;2024-01-25T10:39:39;9.20;99.90
75430;DHT22;64127;51.488;5.462;2024-01-25T10:42:13;9.20;99.90
75430;DHT22;64127;51.488;5.462;2024-01-25T10:44:45;9.20;99.90
75430;DHT22;64127;51.488;5.462;2024-01-25T10:47:17;9.30;99.90
75430;DHT22;64127;51.488;5.462;2024-01-25T10:49:50;9.30;99.90
75430;DHT22;64127;51.488;5.462;2024-01-25T10:52:24;9.30;99.90
75430;DHT22;64127;51.488;5.462;2024-01-25T10:54:56;9.30;99.90
75430;DHT22;64127;51.488;5.462;2024-01-25T10:57:39;9.30;99.90
75430;DHT22;64127;51.488;5.462;2024-01-25T11:00:17;9.40;99.90
75430;DHT22;64127;51.488;5.462;2024-01-25T11:02:50;9.40;99.90
75430;DHT22;64127;51.488;5.462;2024-01-25T11:05:23;9.40;99.90
75430;DHT22;64127;51.488;5.462;2024-01-25T11:07:55;9.40;99.90
75430;DHT22;64127;51.488;5.462;2024-01-25T11:10:28;9.40;99.90
75430;DHT22;64127;51.488;5.462;2024-01-25T11:13:14;9.50;99.90
75430;DHT22;64127;51.488;5.462;2024-01-25T11:15:47;9.50;99.90
75430;DHT22;64127;51.488;5.462;2024-01-25T11:18:19;9.60;99.90
75430;DHT22;64127;51.488;5.462;2024-01-25T11:20:51;9.60;99.90
75430;DHT22;64127;51.488;5.462;2024-01-25T11:23:31;9.60;99.90
75430;DHT22;64127;51.488;5.462;2024-01-25T11:26:08;9.60;99.90
75430;DHT22;64127;51.488;5.462;2024-01-25T11:28:40;9.40;99.90
75430;DHT22;64127;51.488;5.462;2024-01-25T11:31:12;9.40;99.90
75430;DHT22;64127;51.488;5.462;2024-01-25T11:33:45;9.40;99.90
75430;DHT22;64127;51.488;5.462;2024-01-25T11:36:20;9.30;99.90
75430;DHT22;64127;51.488;5.462;2024-01-25T11:38:53;9.40;99.90
75430;DHT22;64127;51.488;5.462;2024-01-25T11:41:25;9.30;99.90
75430;DHT22;64127;51.488;5.462;2024-01-25T11:43:57;9.40;99.90
75430;DHT22;64127;51.488;5.462;2024-01-25T11:46:30;9.50;99.90
75430;DHT22;64127;51.488;5.462;2024-01-25T11:49:07;9.60;99.90
75430;DHT22;64127;51.488;5.462;2024-01-25T11:51:39;9.60;99.90
75430;DHT22;64127;51.488;5.462;2024-01-25T11:54:11;9.60;99.90
75430;DHT22;64127;51.488;5.462;2024-01-25T11:56:44;9.60;99.90
75430;DHT22;64127;51.488;5.462;2024-01-25T11:59:17;9.60;99.90
75430;DHT22;64127;51.488;5.462;2024-01-25T12:01:49;9.60;99.90
75430;DHT22;64127;51.488;5.462;2024-01-25T12:04:22;9.60;99.90
75430;DHT22;64127;51.488;5.462;2024-01-25T12:06:56;9.60;99.90
75430;DHT22;64127;51.488;5.462;2024-01-25T12:09:28;9.60;99.90
75430;DHT22;64127;51.488;5.462;2024-01-25T12:12:01;9.60;99.90
75430;DHT22;64127;51.488;5.462;2024-01-25T12:14:33;9.60;99.90
75430;DHT22;64127;51.488;5.462;2024-01-25T12:17:06;9.60;99.90
75430;DHT22;64127;51.488;5.462;2024-01-25T12:19:39;9.60;99.90
75430;DHT22;64127;51.488;5.462;2024-01-25T12:22:11;9.60;99.90
75430;DHT22;64127;51.488;5.462;2024-01-25T12:24:43;9.60;99.90
75430;DHT22;64127;51.488;5.462;2024-01-25T12:27:31;9.60;99.90
75430;DHT22;64127;51.488;5.462;2024-01-25T12:30:04;9.70;99.90
75430;DHT22;64127;51.488;5.462;2024-01-25T12:32:37;9.70;99.90
75430;DHT22;64127;51.488;5.462;2024-01-25T12:35:09;9.80;99.90
75430;DHT22;64127;51.488;5.462;2024-01-25T12:37:41;9.80;99.90
75430;DHT22;64127;51.488;5.462;2024-01-25T12:40:13;9.80;99.90
75430;DHT22;64127;51.488;5.462;2024-01-25T12:42:46;9.80;99.90
75430;DHT22;64127;51.488;5.462;2024-01-25T12:45:18;9.80;99.90
75430;DHT22;64127;51.488;5.462;2024-01-25T12:47:50;9.80;99.90
75430;DHT22;64127;51.488;5.462;2024-01-25T12:50:23;9.80;99.90
75430;DHT22;64127;51.488;5.462;2024-01-25T12:52:55;9.80;99.90
75430;DHT22;64127;51.488;5.462;2024-01-25T12:55:29;9.80;99.90
75430;DHT22;64127;51.488;5.462;2024-01-25T12:58:02;9.70;99.90
75430;DHT22;64127;51.488;5.462;2024-01-25T13:00:34;9.70;99.90
75430;DHT22;64127;51.488;5.462;2024-01-25T13:03:06;9.60;99.90
75430;DHT22;64127;51.488;5.462;2024-01-25T13:05:38;9.60;99.90
75430;DHT22;64127;51.488;5.462;2024-01-25T13:08:11;9.60;99.90
75430;DHT22;64127;51.488;5.462;2024-01-25T13:10:43;9.50;99.90
75430;DHT22;64127;51.488;5.462;2024-01-25T13:13:15;9.60;99.90
75430;DHT22;64127;51.488;5.462;2024-01-25T13:15:47;9.50;99.90
75430;DHT22;64127;51.488;5.462;2024-01-25T13:18:19;9.50;99.90
75430;DHT22;64127;51.488;5.462;2024-01-25T13:20:52;9.50;99.90
75430;DHT22;64127;51.488;5.462;2024-01-25T13:23:24;9.50;99.90
75430;DHT22;64127;51.488;5.462;2024-01-25T13:25:56;9.50;99.90
75430;DHT22;64127;51.488;5.462;2024-01-25T13:28:28;9.50;99.90
75430;DHT22;64127;51.488;5.462;2024-01-25T13:31:01;9.50;99.90
75430;DHT22;64127;51.488;5.462;2024-01-25T13:33:34;9.50;99.90
75430;DHT22;64127;51.488;5.462;2024-01-25T13:36:06;9.60;99.90
75430;DHT22;64127;51.488;5.462;2024-01-25T13:38:40;9.50;99.90
75430;DHT22;64127;51.488;5.462;2024-01-25T13:41:12;9.50;99.90
75430;DHT22;64127;51.488;5.462;2024-01-25T13:43:45;9.50;99.90
75430;DHT22;64127;51.488;5.462;2024-01-25T13:46:17;9.40;99.90
75430;DHT22;64127;51.488;5.462;2024-01-25T13:48:52;9.40;99.90
75430;DHT22;64127;51.488;5.462;2024-01-25T13:51:24;9.40;99.90
75430;DHT22;64127;51.488;5.462;2024-01-25T13:53:56;9.40;99.90
75430;DHT22;64127;51.488;5.462;2024-01-25T13:56:29;9.40;99.90
75430;DHT22;64127;51.488;5.462;2024-01-25T13:59:01;9.40;99.90
75430;DHT22;64127;51.488;5.462;2024-01-25T14:01:33;9.40;99.90
75430;DHT22;64127;51.488;5.462;2024-01-25T14:04:05;9.40;99.90
75430;DHT22;64127;51.488;5.462;2024-01-25T14:06:37;9.40;99.90
75430;DHT22;64127;51.488;5.462;2024-01-25T14:09:09;9.40;99.90
75430;DHT22;64127;51.488;5.462;2024-01-25T14:11:41;9.40;99.90
75430;DHT22;64127;51.488;5.462;2024-01-25T14:14:13;9.40;99.90
75430;DHT22;64127;51.488;5.462;2024-01-25T14:16:46;9.40;99.90
75430;DHT22;64127;51.488;5.462;2024-01-25T14:19:18;9.30;99.90
75430;DHT22;64127;51.488;5.462;2024-01-25T14:21:52;9.30;99.90
75430;DHT22;64127;51.488;5.462;2024-01-25T14:24:44;9.30;99.90
75430;DHT22;64127;51.488;5.462;2024-01-25T14:27:17;9.30;99.90
75430;DHT22;64127;51.488;5.462;2024-01-25T14:29:49;9.30;99.90
75430;DHT22;64127;51.488;5.462;2024-01-25T14:32:22;9.30;99.90
75430;DHT22;64127;51.488;5.462;2024-01-25T14:34:55;9.40;99.90
75430;DHT22;64127;51.488;5.462;2024-01-25T14:37:27;9.30;99.90
75430;DHT22;64127;51.488;5.462;2024-01-25T14:39:59;9.30;99.90
75430;DHT22;64127;51.488;5.462;2024-01-25T14:42:51;9.30;99.90
75430;DHT22;64127;51.488;5.462;2024-01-25T14:45:23;9.40;99.90
75430;DHT22;64127;51.488;5.462;2024-01-25T14:47:56;9.40;99.90
75430;DHT22;64127;51.488;5.462;2024-01-25T14:50:29;9.40;99.90
75430;DHT22;64127;51.488;5.462;2024-01-25T14:53:02;9.40;99.90
75430;DHT22;64127;51.488;5.462;2024-01-25T14:55:34;9.30;99.90
75430;DHT22;64127;51.488;5.462;2024-01-25T14:58:06;9.40;99.90
75430;DHT22;64127;51.488;5.462;2024-01-25T15:00:40;9.40;99.90
75430;DHT22;64127;51.488;5.462;2024-01-25T15:03:12;9.40;99.90
75430;DHT22;64127;51.488;5.462;2024-01-25T15:05:44;9.40;99.90
75430;DHT22;64127;51.488;5.462;2024-01-25T15:08:16;9.30;99.90
75430;DHT22;64127;51.488;5.462;2024-01-25T15:10:49;9.40;99.90
75430;DHT22;64127;51.488;5.462;2024-01-25T15:13:21;9.40;99.90
75430;DHT22;64127;51.488;5.462;2024-01-25T15:15:53;9.40;99.90
75430;DHT22;64127;51.488;5.462;2024-01-25T15:18:25;9.40;99.90
75430;DHT22;64127;51.488;5.462;2024-01-25T15:20:57;9.40;99.90
75430;DHT22;64127;51.488;5.462;2024-01-25T15:23:29;9.40;99.90
75430;DHT22;64127;51.488;5.462;2024-01-25T15:26:03;9.40;99.90
75430;DHT22;64127;51.488;5.462;2024-01-25T15:28:36;9.40;99.90
75430;DHT22;64127;51.488;5.462;2024-01-25T15:31:10;9.40;99.90
75430;DHT22;64127;51.488;5.462;2024-01-25T15:33:42;9.40;99.90
75430;DHT22;64127;51.488;5.462;2024-01-25T15:36:14;9.40;99.90
75430;DHT22;64127;51.488;5.462;2024-01-25T15:38:49;9.40;99.90
75430;DHT22;64127;51.488;5.462;2024-01-25T15:41:21;9.40;99.90
75430;DHT22;64127;51.488;5.462;2024-01-25T15:43:53;9.40;99.90
75430;DHT22;64127;51.488;5.462;2024-01-25T15:46:25;9.40;99.90
75430;DHT22;64127;51.488;5.462;2024-01-25T15:48:57;9.40;99.90
75430;DHT22;64127;51.488;5.462;2024-01-25T15:51:29;9.40;99.90
75430;DHT22;64127;51.488;5.462;2024-01-25T15:54:02;9.40;99.90
75430;DHT22;64127;51.488;5.462;2024-01-25T15:56:34;9.40;99.90
75430;DHT22;64127;51.488;5.462;2024-01-25T15:59:06;9.40;99.90
75430;DHT22;64127;51.488;5.462;2024-01-25T16:01:38;9.40;99.90
75430;DHT22;64127;51.488;5.462;2024-01-25T16:04:10;9.40;99.90
75430;DHT22;64127;51.488;5.462;2024-01-25T16:06:42;9.40;99.90
75430;DHT22;64127;51.488;5.462;2024-01-25T16:09:14;9.40;99.90
75430;DHT22;64127;51.488;5.462;2024-01-25T16:11:46;9.40;99.90
75430;DHT22;64127;51.488;5.462;2024-01-25T16:14:18;9.40;99.90
75430;DHT22;64127;51.488;5.462;2024-01-25T16:16:50;9.40;99.90
75430;DHT22;64127;51.488;5.462;2024-01-25T16:19:22;9.40;99.90